Time;durP1;ratioP1;P1;durP2;ratioP2;P2;SDS_P1;SDS_P2;PMS_P1;PMS_P2;Temp;Humidity;BMP_temperature;BMP_pressure;BME280_temperature;BME280_humidity;BME280_pressure;Samples;Min_cycle;Max_cycle;Signal;HPM_P1;HPM_P2
2021/05/15 00:01:59;;;;;;;6.60;4.75;;;359.20;2329.60;;;;;;4894756;29;20024;-61
2021/05/15 00:04:25;;;;;;;7.10;4.07;;;359.20;2329.60;;;;;;4895290;29;20027;-64
2021/05/15 00:06:51;;;;;;;8.07;4.20;;;359.20;2329.60;;;;;;4894949;29;20475;-61
2021/05/15 00:09:17;;;;;;;7.45;4.60;;;359.20;2329.60;;;;;;4892441;29;20085;-61
2021/05/15 00:11:43;;;;;;;8.95;5.60;;;359.10;2329.60;;;;;;4894552;29;20029;-61
2021/05/15 00:14:09;;;;;;;7.53;4.53;;;359.20;2329.60;;;;;;4895260;29;20029;-62
2021/05/15 00:16:35;;;;;;;8.68;5.32;;;359.10;2329.60;;;;;;4895039;29;20364;-62
2021/05/15 00:19:01;;;;;;;7.45;4.50;;;359.00;2329.60;;;;;;4894772;29;20032;-61
2021/05/15 00:21:27;;;;;;;7.05;4.15;;;359.00;2329.60;;;;;;4893052;29;20490;-60
2021/05/15 00:23:52;;;;;;;5.88;4.00;;;358.80;2329.60;;;;;;4894916;29;20047;-60
2021/05/15 00:26:18;;;;;;;7.20;3.63;;;358.90;2329.60;;;;;;4895172;29;20407;-61
2021/05/15 00:28:44;;;;;;;5.13;3.90;;;358.90;2329.60;;;;;;4894855;29;20487;-63
2021/05/15 00:31:10;;;;;;;4.97;3.50;;;359.00;2329.60;;;;;;4893424;29;20055;-63
2021/05/15 00:33:36;;;;;;;6.18;3.65;;;359.00;2329.60;;;;;;4894189;29;20057;-62
2021/05/15 00:36:03;;;;;;;7.63;4.00;;;359.00;2329.60;;;;;;4891873;29;20127;-60
2021/05/15 00:38:29;;;;;;;5.50;3.65;;;359.00;2329.60;;;;;;4894717;29;20024;-61
2021/05/15 00:40:55;;;;;;;5.20;3.70;;;359.00;2329.60;;;;;;4895072;29;20035;-61
2021/05/15 00:43:21;;;;;;;5.25;4.00;;;359.00;2329.60;;;;;;4891940;29;20025;-61
2021/05/15 00:45:47;;;;;;;5.15;3.80;;;359.00;2329.60;;;;;;4894008;29;20031;-61
2021/05/15 00:48:12;;;;;;;5.07;4.20;;;359.00;2329.60;;;;;;4888970;29;20431;-61
2021/05/15 00:50:38;;;;;;;5.97;4.07;;;359.00;2329.60;;;;;;4891168;29;20028;-61
2021/05/15 00:53:04;;;;;;;6.18;4.45;;;359.00;2329.60;;;;;;4894629;29;20028;-60
2021/05/15 00:55:31;;;;;;;8.80;4.90;;;358.90;2329.60;;;;;;4894756;29;20024;-60
2021/05/15 00:57:58;;;;;;;7.32;4.50;;;358.90;2329.60;;;;;;4894586;29;20037;-61
2021/05/15 01:00:24;;;;;;;7.13;4.45;;;358.80;2329.60;;;;;;4890160;29;20361;-61
2021/05/15 01:02:50;;;;;;;7.07;4.82;;;358.80;2329.60;;;;;;4894746;29;20035;-60
2021/05/15 01:05:16;;;;;;;6.65;5.07;;;358.80;2329.60;;;;;;4894217;29;20084;-60
2021/05/15 01:07:44;;;;;;;9.27;5.25;;;358.70;2329.60;;;;;;4894280;29;20483;-63
2021/05/15 01:10:11;;;;;;;6.85;5.00;;;358.70;2329.60;;;;;;4893126;29;20041;-60
2021/05/15 01:12:52;;;;;;;8.38;5.30;;;358.70;2329.60;;;;;;4898563;29;20025;-64
2021/05/15 01:15:20;;;;;;;7.55;5.13;;;358.70;2329.60;;;;;;4895055;29;20111;-62
2021/05/15 01:17:59;;;;;;;7.78;5.07;;;358.60;2329.60;;;;;;4896647;29;20032;-60
2021/05/15 01:20:27;;;;;;;6.53;5.13;;;358.60;2329.60;;;;;;4894674;29;20017;-61
2021/05/15 01:22:55;;;;;;;9.40;5.28;;;358.60;2329.60;;;;;;4897255;29;20029;-61
2021/05/15 01:25:21;;;;;;;6.30;4.88;;;358.60;2329.60;;;;;;4896842;29;20020;-60
2021/05/15 01:27:46;;;;;;;9.15;5.05;;;358.60;2329.60;;;;;;4896949;29;20033;-61
2021/05/15 01:30:14;;;;;;;6.60;5.43;;;358.60;2329.60;;;;;;4897169;29;20020;-61
2021/05/15 01:32:43;;;;;;;9.65;5.32;;;358.50;2329.60;;;;;;4897115;29;20061;-61
2021/05/15 01:35:09;;;;;;;7.45;5.97;;;358.40;2329.60;;;;;;4894981;29;20535;-62
2021/05/15 01:37:36;;;;;;;8.93;6.25;;;358.40;2329.60;;;;;;4878867;29;20110;-62
2021/05/15 01:40:05;;;;;;;10.55;7.22;;;358.40;2329.60;;;;;;4896814;29;20029;-61
2021/05/15 01:42:31;;;;;;;11.32;7.38;;;358.40;2329.60;;;;;;4894727;29;20029;-61
2021/05/15 01:44:58;;;;;;;14.40;8.30;;;358.40;2329.60;;;;;;4897074;29;20035;-60
2021/05/15 01:47:23;;;;;;;15.82;9.80;;;358.40;2329.60;;;;;;4897155;29;20032;-60
2021/05/15 01:49:49;;;;;;;20.75;11.70;;;358.40;2329.60;;;;;;4897063;29;20375;-60
2021/05/15 01:52:16;;;;;;;21.70;11.63;;;358.50;2329.60;;;;;;4897148;29;20021;-62
2021/05/15 01:54:42;;;;;;;16.75;10.10;;;358.40;2329.60;;;;;;4896939;29;20032;-62
2021/05/15 01:57:09;;;;;;;15.13;8.55;;;358.40;2329.60;;;;;;4896945;29;20028;-62
2021/05/15 01:59:34;;;;;;;12.38;8.05;;;333.70;2329.60;;;;;;4897121;29;20017;-61
2021/05/15 02:02:00;;;;;;;10.23;6.38;;;333.70;2329.60;;;;;;4900211;29;20471;-62
2021/05/15 02:04:26;;;;;;;9.23;6.38;;;333.70;2329.60;;;;;;4900121;29;20028;-63
2021/05/15 02:06:52;;;;;;;7.55;5.07;;;333.60;2329.60;;;;;;4900038;29;20032;-62
2021/05/15 02:09:17;;;;;;;7.43;5.30;;;333.50;2329.60;;;;;;4887825;29;20478;-61
2021/05/15 02:11:43;;;;;;;6.82;4.20;;;333.50;2329.60;;;;;;4881416;29;20025;-63
2021/05/15 02:14:09;;;;;;;7.45;4.15;;;333.50;2329.60;;;;;;4881730;29;20029;-64
2021/05/15 02:16:35;;;;;;;7.80;4.00;;;333.50;2329.60;;;;;;4881144;29;20555;-64
2021/05/15 02:19:00;;;;;;;5.00;3.90;;;333.40;2329.60;;;;;;4881220;29;20400;-63
2021/05/15 02:21:26;;;;;;;6.30;4.18;;;333.40;2329.60;;;;;;4881196;29;20041;-64
2021/05/15 02:23:52;;;;;;;6.57;3.92;;;333.40;2329.60;;;;;;4881492;29;20384;-62
2021/05/15 02:26:18;;;;;;;5.95;4.10;;;333.40;2329.60;;;;;;4881259;29;20028;-66
2021/05/15 02:28:44;;;;;;;5.65;3.97;;;333.40;2329.60;;;;;;4881217;29;20090;-63
2021/05/15 02:31:10;;;;;;;6.25;4.40;;;333.30;2329.60;;;;;;4881495;29;20026;-66
2021/05/15 02:33:36;;;;;;;8.68;4.55;;;333.30;2329.60;;;;;;4880967;29;20051;-66
2021/05/15 02:36:01;;;;;;;7.22;4.38;;;333.20;2329.60;;;;;;4881122;29;20029;-64
2021/05/15 02:38:27;;;;;;;5.70;4.10;;;333.20;2329.60;;;;;;4880934;29;20025;-63
2021/05/15 02:40:54;;;;;;;7.00;4.40;;;333.20;2329.60;;;;;;4881071;29;20018;-63
2021/05/15 02:43:20;;;;;;;6.45;4.32;;;333.30;2329.60;;;;;;4881372;29;20021;-63
2021/05/15 02:45:46;;;;;;;6.10;4.78;;;333.30;2329.60;;;;;;4880848;29;20056;-63
2021/05/15 02:48:18;;;;;;;7.72;4.90;;;333.30;2329.60;;;;;;4880848;29;20078;-62
2021/05/15 02:50:52;;;;;;;7.70;5.53;;;333.30;2329.60;;;;;;4880640;29;20112;-62
2021/05/15 02:53:18;;;;;;;8.55;5.55;;;333.40;2329.60;;;;;;4880354;29;20031;-62
2021/05/15 02:55:45;;;;;;;9.45;5.13;;;333.50;2329.60;;;;;;4880089;29;20026;-62
2021/05/15 02:58:13;;;;;;;8.27;5.53;;;333.50;2329.60;;;;;;4881814;29;20531;-64
2021/05/15 03:00:38;;;;;;;6.78;5.15;;;333.60;2329.60;;;;;;4881860;29;20530;-63
2021/05/15 03:03:04;;;;;;;8.68;5.25;;;333.60;2329.60;;;;;;4881529;29;20116;-63
2021/05/15 03:05:30;;;;;;;7.47;4.90;;;333.70;2329.60;;;;;;4882049;29;20029;-64
2021/05/15 03:07:56;;;;;;;8.68;5.20;;;333.70;2329.60;;;;;;4881247;29;20480;-64
2021/05/15 03:10:24;;;;;;;7.88;5.05;;;333.70;2329.60;;;;;;4881644;29;20084;-63
2021/05/15 03:12:54;;;;;;;7.57;5.97;;;333.70;2329.60;;;;;;4881182;29;20411;-64
2021/05/15 03:15:21;;;;;;;8.55;5.55;;;333.70;2329.60;;;;;;4881653;29;20531;-64
2021/05/15 03:17:47;;;;;;;8.00;5.20;;;333.70;2329.60;;;;;;4881313;29;20028;-64
2021/05/15 03:20:18;;;;;;;7.13;5.32;;;333.70;2329.60;;;;;;4881621;29;20047;-64
2021/05/15 03:22:47;;;;;;;9.60;5.20;;;333.70;2329.60;;;;;;4881321;29;20148;-63
2021/05/15 03:25:14;;;;;;;8.90;5.95;;;333.70;2329.60;;;;;;4881337;29;20036;-63
2021/05/15 03:27:40;;;;;;;9.27;5.95;;;333.70;2329.60;;;;;;4881369;29;20076;-63
2021/05/15 03:30:08;;;;;;;11.32;6.35;;;333.70;2329.60;;;;;;4880885;29;20026;-63
2021/05/15 03:32:33;;;;;;;7.80;5.20;;;333.60;2329.60;;;;;;4880968;29;20100;-63
2021/05/15 03:34:59;;;;;;;10.40;6.20;;;333.60;2329.60;;;;;;4881008;29;20057;-63
2021/05/15 03:37:26;;;;;;;9.05;5.45;;;333.60;2329.60;;;;;;4881074;29;20459;-63
2021/05/15 03:39:52;;;;;;;10.13;6.03;;;333.60;2329.60;;;;;;4881225;29;20399;-63
2021/05/15 03:42:18;;;;;;;8.27;6.30;;;333.60;2329.60;;;;;;4881154;29;20029;-65
2021/05/15 03:44:43;;;;;;;10.48;6.78;;;333.60;2329.60;;;;;;4880874;29;20032;-63
2021/05/15 03:47:09;;;;;;;10.13;6.00;;;333.60;2329.60;;;;;;4880784;29;20053;-63
2021/05/15 03:49:35;;;;;;;9.40;7.45;;;333.60;2329.60;;;;;;4880850;29;20033;-63
2021/05/15 03:52:00;;;;;;;13.25;10.77;;;333.60;2329.60;;;;;;4881106;29;20077;-62
2021/05/15 03:54:27;;;;;;;12.43;9.60;;;333.50;2329.60;;;;;;4864092;29;20397;-64
2021/05/15 03:56:52;;;;;;;11.65;8.55;;;333.50;2329.60;;;;;;4880847;29;20058;-65
2021/05/15 03:59:18;;;;;;;9.40;7.30;;;333.40;2329.60;;;;;;4880733;29;20426;-66
2021/05/15 04:01:46;;;;;;;11.20;6.97;;;333.60;2329.60;;;;;;4880500;29;20524;-64
2021/05/15 04:04:12;;;;;;;9.98;6.55;;;333.70;2329.60;;;;;;4880506;29;20029;-64
2021/05/15 04:06:38;;;;;;;10.77;6.60;;;333.60;2329.60;;;;;;4880895;29;20025;-64
2021/05/15 04:09:05;;;;;;;10.45;6.70;;;358.40;2329.60;;;;;;4880243;29;20405;-64
2021/05/15 04:11:35;;;;;;;10.15;6.85;;;358.40;2329.60;;;;;;4880596;29;20036;-63
2021/05/15 04:14:35;;;;;;;9.85;7.03;;;358.40;2329.60;;;;;;4880299;29;20092;-63
2021/05/15 04:19:45;;;;;;;10.23;5.93;;;358.50;2329.60;;;;;;4786974;30;20463;-62
2021/05/15 04:22:10;;;;;;;9.45;6.60;;;358.50;2329.60;;;;;;4786740;30;20059;-63
2021/05/15 04:24:36;;;;;;;8.75;6.50;;;358.60;2329.60;;;;;;4786242;29;20453;-66
2021/05/15 04:27:04;;;;;;;8.20;5.70;;;358.70;2329.60;;;;;;4786848;30;20034;-63
2021/05/15 04:29:31;;;;;;;7.82;5.25;;;358.70;2329.60;;;;;;4786854;30;20513;-64
2021/05/15 04:31:58;;;;;;;7.78;4.93;;;358.90;2329.60;;;;;;4786557;30;20123;-62
2021/05/15 04:34:25;;;;;;;10.65;5.80;;;359.00;2329.60;;;;;;4784857;30;20130;-62
2021/05/15 04:36:51;;;;;;;9.63;7.20;;;359.00;2329.60;;;;;;4785339;30;20087;-62
2021/05/15 04:39:17;;;;;;;12.80;9.52;;;359.20;2329.60;;;;;;4785234;30;20027;-63
2021/05/15 04:41:44;;;;;;;12.85;9.00;;;359.30;2329.60;;;;;;4786031;30;20443;-63
2021/05/15 04:44:09;;;;;;;12.80;9.52;;;384.00;2329.60;;;;;;4786061;30;20099;-63
2021/05/15 04:46:35;;;;;;;12.90;9.10;;;384.10;2329.60;;;;;;4785902;30;20547;-66
2021/05/15 04:49:01;;;;;;;11.95;8.85;;;384.20;2329.60;;;;;;4792314;29;20062;-64
2021/05/15 04:51:27;;;;;;;8.95;7.43;;;384.30;2329.60;;;;;;4794912;29;20089;-64
2021/05/15 04:53:53;;;;;;;4.63;3.20;;;384.40;2329.60;;;;;;4786414;30;20046;-62
2021/05/15 04:56:19;;;;;;;4.40;3.00;;;384.50;2329.60;;;;;;4819950;29;20033;-63
2021/05/15 04:58:45;;;;;;;6.38;3.60;;;384.60;2329.60;;;;;;4878051;29;20062;-63
2021/05/15 05:01:11;;;;;;;5.85;3.10;;;384.70;2329.60;;;;;;4880037;29;20025;-64
2021/05/15 05:03:37;;;;;;;5.78;3.40;;;384.80;2329.60;;;;;;4879908;29;20506;-63
2021/05/15 05:06:03;;;;;;;11.43;5.53;;;384.80;2329.60;;;;;;4879431;29;20040;-63
2021/05/15 05:08:29;;;;;;;7.15;4.75;;;384.90;2329.60;;;;;;4879426;29;20057;-63
2021/05/15 05:10:55;;;;;;;5.13;3.20;;;384.90;2329.60;;;;;;4879149;29;20053;-63
2021/05/15 05:13:21;;;;;;;5.90;4.20;;;409.60;2355.20;;;;;;4878238;29;20107;-64
2021/05/15 05:15:47;;;;;;;7.25;4.15;;;409.60;2355.20;;;;;;4876533;29;20132;-64
2021/05/15 05:18:13;;;;;;;6.13;3.70;;;384.90;2329.60;;;;;;4876344;29;20111;-65
2021/05/15 05:20:39;;;;;;;6.78;4.38;;;384.90;2329.60;;;;;;4876581;29;20108;-64
2021/05/15 05:23:06;;;;;;;6.43;4.10;;;409.60;2355.20;;;;;;4873687;29;20033;-65
2021/05/15 05:25:32;;;;;;;8.45;4.13;;;409.60;2355.20;;;;;;4877370;29;20025;-64
2021/05/15 05:27:58;;;;;;;5.38;3.83;;;409.60;2355.20;;;;;;4878575;29;20041;-63
2021/05/15 05:30:24;;;;;;;6.65;3.70;;;409.70;2355.20;;;;;;4879287;29;20501;-64
2021/05/15 05:32:50;;;;;;;5.43;3.35;;;409.80;2355.20;;;;;;4879613;29;20041;-65
2021/05/15 05:35:17;;;;;;;4.53;3.17;;;409.80;2355.20;;;;;;4880247;29;20036;-64
2021/05/15 05:37:43;;;;;;;4.95;2.55;;;409.90;2355.20;;;;;;4883009;29;20460;-64
2021/05/15 05:40:11;;;;;;;3.78;2.15;;;409.90;2355.20;;;;;;4883239;29;20065;-64
2021/05/15 05:42:38;;;;;;;3.10;2.20;;;409.90;2355.20;;;;;;4883192;29;20029;-64
2021/05/15 05:45:06;;;;;;;3.05;1.60;;;410.00;2355.20;;;;;;4882923;29;20033;-63
2021/05/15 05:47:32;;;;;;;3.35;2.10;;;410.00;2304.00;;;;;;4882411;29;20045;-63
2021/05/15 05:49:57;;;;;;;4.20;2.10;;;410.10;2329.60;;;;;;4882995;29;20029;-64
2021/05/15 05:52:23;;;;;;;3.40;1.60;;;410.10;2355.20;;;;;;4882841;29;20062;-65
2021/05/15 05:54:49;;;;;;;4.35;1.48;;;410.20;2304.00;;;;;;4882674;29;20029;-65
2021/05/15 05:57:15;;;;;;;3.30;1.30;;;410.30;2278.40;;;;;;4866159;29;20041;-65
2021/05/15 05:59:40;;;;;;;4.78;1.50;;;410.40;2252.80;;;;;;4881114;29;20029;-65
2021/05/15 06:02:06;;;;;;;4.57;1.17;;;410.40;2227.20;;;;;;4879125;29;20040;-65
2021/05/15 06:04:33;;;;;;;4.10;1.30;;;410.50;2252.80;;;;;;4878514;29;20077;-64
2021/05/15 06:06:58;;;;;;;1.98;1.10;;;435.20;2227.20;;;;;;4877684;29;20420;-63
2021/05/15 06:09:24;;;;;;;2.63;1.23;;;410.40;2176.00;;;;;;4877276;29;20060;-63
2021/05/15 06:11:50;;;;;;;2.28;1.10;;;435.40;2227.20;;;;;;4880600;29;20100;-63
2021/05/15 06:14:16;;;;;;;2.22;1.00;;;435.50;2176.00;;;;;;4881899;29;20387;-63
2021/05/15 06:16:41;;;;;;;3.13;1.20;;;435.60;2150.40;;;;;;4882561;29;20037;-64
2021/05/15 06:19:07;;;;;;;2.25;1.17;;;435.80;2176.00;;;;;;4882535;29;20380;-63
2021/05/15 06:21:33;;;;;;;3.58;1.10;;;435.80;2176.00;;;;;;4882497;29;20107;-64
2021/05/15 06:23:59;;;;;;;2.72;0.90;;;436.00;2201.60;;;;;;4882089;29;20029;-64
2021/05/15 06:26:25;;;;;;;2.60;0.90;;;436.10;2073.60;;;;;;4881307;29;20067;-63
2021/05/15 06:28:51;;;;;;;2.05;0.80;;;460.90;2150.40;;;;;;4881701;29;20097;-64
2021/05/15 06:31:17;;;;;;;2.08;0.73;;;461.00;2022.40;;;;;;4882419;29;20479;-64
2021/05/15 06:33:42;;;;;;;2.78;1.20;;;461.00;2022.40;;;;;;4882518;29;20025;-64
2021/05/15 06:36:08;;;;;;;1.92;0.90;;;461.30;2048.00;;;;;;4882072;29;20029;-64
2021/05/15 06:38:34;;;;;;;1.42;0.70;;;461.50;2022.40;;;;;;4882098;29;20075;-63
2021/05/15 06:40:59;;;;;;;2.08;0.88;;;461.60;1996.80;;;;;;4882117;29;20053;-64
2021/05/15 06:43:25;;;;;;;2.10;0.80;;;486.40;1945.60;;;;;;4864888;29;20177;-63
2021/05/15 06:45:51;;;;;;;1.73;0.90;;;486.70;1920.00;;;;;;4881916;29;20510;-63
2021/05/15 06:48:16;;;;;;;1.42;0.70;;;487.00;1894.40;;;;;;4881064;29;20037;-63
2021/05/15 06:50:42;;;;;;;1.20;0.60;;;487.20;1792.00;;;;;;4880215;29;20029;-63
2021/05/15 06:53:08;;;;;;;1.80;0.70;;;487.30;1715.20;;;;;;4880590;29;20391;-63
2021/05/15 06:55:34;;;;;;;1.50;0.68;;;512.10;1740.80;;;;;;4880807;29;20056;-63
2021/05/15 06:58:06;;;;;;;1.25;0.65;;;512.40;1715.20;;;;;;4880580;29;20040;-63
2021/05/15 07:00:32;;;;;;;1.45;0.60;;;512.80;1740.80;;;;;;4880507;29;20774;-62
2021/05/15 07:02:58;;;;;;;2.63;1.73;;;512.90;1715.20;;;;;;4880330;29;20025;-65
2021/05/15 07:05:24;;;;;;;2.65;1.25;;;537.70;1689.60;;;;;;4880193;29;20037;-63
2021/05/15 07:07:50;;;;;;;2.90;0.90;;;537.90;1664.00;;;;;;4863866;29;20408;-63
2021/05/15 07:10:16;;;;;;;1.55;1.20;;;537.90;1638.40;;;;;;4881561;29;20479;-64
2021/05/15 07:12:41;;;;;;;2.25;0.70;;;538.30;1638.40;;;;;;4880916;29;20060;-64
2021/05/15 07:15:08;;;;;;;2.08;0.60;;;538.40;1561.60;;;;;;4881467;29;20040;-64
2021/05/15 07:17:35;;;;;;;1.45;0.70;;;538.40;1587.20;;;;;;4881449;29;20044;-64
2021/05/15 07:20:03;;;;;;;1.63;0.60;;;538.40;1561.60;;;;;;4881584;29;20498;-63
2021/05/15 07:22:29;;;;;;;2.65;0.80;;;538.40;1561.60;;;;;;4881389;29;20049;-64
2021/05/15 07:24:58;;;;;;;1.95;0.85;;;538.40;1561.60;;;;;;4880814;29;20033;-64
2021/05/15 07:27:24;;;;;;;1.85;0.80;;;538.40;1561.60;;;;;;4881129;29;20513;-64
2021/05/15 07:29:52;;;;;;;1.60;0.70;;;538.10;1561.60;;;;;;4881221;29;20493;-64
2021/05/15 07:32:19;;;;;;;2.63;0.75;;;537.90;1612.80;;;;;;4881115;29;20028;-64
2021/05/15 07:34:46;;;;;;;2.65;0.73;;;537.90;1612.80;;;;;;4880673;29;20025;-64
2021/05/15 07:37:12;;;;;;;1.38;0.90;;;537.90;1612.80;;;;;;4881053;29;20049;-63
2021/05/15 07:39:38;;;;;;;3.25;0.60;;;537.80;1612.80;;;;;;4880740;29;20498;-64
2021/05/15 07:42:05;;;;;;;2.85;0.80;;;537.90;1587.20;;;;;;4880564;29;20070;-65
2021/05/15 07:44:30;;;;;;;1.92;0.65;;;538.10;1638.40;;;;;;4880977;29;20056;-64
2021/05/15 07:46:56;;;;;;;1.30;0.60;;;538.00;1587.20;;;;;;4864618;29;20045;-66
2021/05/15 07:49:22;;;;;;;1.15;0.60;;;538.00;1612.80;;;;;;4864255;29;20044;-65
2021/05/15 07:51:49;;;;;;;2.03;0.60;;;537.80;1612.80;;;;;;4880390;29;20033;-64
2021/05/15 07:54:15;;;;;;;1.60;0.60;;;537.90;1587.20;;;;;;4863830;29;20535;-65
2021/05/15 07:56:41;;;;;;;1.95;0.90;;;537.90;1587.20;;;;;;4880521;29;20029;-65
2021/05/15 07:59:06;;;;;;;2.97;0.80;;;538.00;1612.80;;;;;;4880375;29;20120;-65
2021/05/15 08:01:32;;;;;;;1.75;0.60;;;538.30;1561.60;;;;;;4880400;29;20028;-65
2021/05/15 08:03:58;;;;;;;2.13;0.90;;;538.30;1536.00;;;;;;4880508;29;20033;-64
2021/05/15 08:06:24;;;;;;;2.40;1.00;;;538.30;1561.60;;;;;;4880494;29;20029;-65
2021/05/15 08:08:50;;;;;;;1.27;0.60;;;538.40;1561.60;;;;;;4879629;29;20373;-61
2021/05/15 08:11:18;;;;;;;2.20;0.95;;;563.20;1536.00;;;;;;4880524;29;20031;-62
2021/05/15 08:13:45;;;;;;;1.35;0.60;;;563.50;1433.60;;;;;;4880757;29;20044;-66
2021/05/15 08:16:12;;;;;;;1.95;0.77;;;563.60;1408.00;;;;;;4880321;29;20025;-62
2021/05/15 08:18:39;;;;;;;1.02;0.60;;;563.80;1484.80;;;;;;4880522;29;20033;-61
2021/05/15 08:21:05;;;;;;;1.30;0.70;;;564.10;1459.20;;;;;;4880533;29;20025;-61
2021/05/15 08:23:35;;;;;;;2.25;0.60;;;588.90;1433.60;;;;;;4880424;29;20051;-62
2021/05/15 08:26:02;;;;;;;2.55;0.70;;;589.00;1382.40;;;;;;4880234;29;20029;-61
2021/05/15 08:28:28;;;;;;;2.05;0.75;;;589.20;1356.80;;;;;;4880097;29;20051;-61
2021/05/15 08:30:54;;;;;;;1.25;0.60;;;589.50;1331.20;;;;;;4880159;29;20375;-62
2021/05/15 08:33:20;;;;;;;1.90;0.60;;;589.70;1280.00;;;;;;4878468;29;20037;-60
2021/05/15 08:35:46;;;;;;;1.00;0.50;;;589.70;1280.00;;;;;;4860862;29;20037;-62
2021/05/15 08:38:11;;;;;;;2.20;0.80;;;614.60;1305.60;;;;;;4876989;29;20033;-61
2021/05/15 08:40:37;;;;;;;1.40;0.77;;;614.80;1280.00;;;;;;4859943;29;20040;-61
2021/05/15 08:43:05;;;;;;;2.05;0.80;;;614.90;1203.20;;;;;;4876796;29;20037;-63
2021/05/15 08:45:31;;;;;;;2.25;0.70;;;614.80;1228.80;;;;;;4879061;29;20048;-63
2021/05/15 08:47:57;;;;;;;2.00;0.65;;;614.90;1203.20;;;;;;4874681;29;20499;-61
2021/05/15 08:50:28;;;;;;;1.52;0.68;;;614.80;1177.60;;;;;;4877495;29;20040;-63
2021/05/15 08:52:56;;;;;;;1.63;0.70;;;615.00;1203.20;;;;;;4879301;29;20032;-62
2021/05/15 08:55:30;;;;;;;1.65;0.60;;;640.10;1177.60;;;;;;4879293;29;20088;-64
2021/05/15 08:57:57;;;;;;;1.35;0.68;;;640.00;1152.00;;;;;;4880025;29;20029;-64
2021/05/15 09:00:28;;;;;;;1.25;0.70;;;615.10;1152.00;;;;;;4880062;29;20057;-64
2021/05/15 09:03:00;;;;;;;3.80;0.80;;;615.30;1126.40;;;;;;4879814;29;20044;-64
2021/05/15 09:05:28;;;;;;;1.42;0.80;;;615.00;1152.00;;;;;;4879958;29;20042;-61
2021/05/15 09:07:58;;;;;;;2.17;0.60;;;614.90;1177.60;;;;;;4879531;29;20029;-63
2021/05/15 09:10:27;;;;;;;3.30;0.77;;;614.90;1152.00;;;;;;4880861;29;20085;-64
2021/05/15 09:13:04;;;;;;;1.08;0.70;;;615.20;1203.20;;;;;;4883416;29;20044;-64
2021/05/15 09:15:39;;;;;;;1.27;0.80;;;615.20;1126.40;;;;;;4883440;29;20025;-62
2021/05/15 09:18:05;;;;;;;1.17;0.55;;;640.10;1100.80;;;;;;4883590;29;20474;-62
2021/05/15 09:20:37;;;;;;;1.27;0.60;;;640.30;1075.20;;;;;;4883515;29;20072;-61
2021/05/15 09:23:19;;;;;;;1.27;0.70;;;640.30;1100.80;;;;;;4883251;29;20112;-62
2021/05/15 09:25:56;;;;;;;3.08;0.93;;;640.50;1075.20;;;;;;4883236;29;20085;-62
2021/05/15 09:28:46;;;;;;;1.85;0.80;;;640.70;1049.60;;;;;;4883118;29;20069;-61
2021/05/15 09:31:29;;;;;;;2.35;0.77;;;640.60;1075.20;;;;;;4883165;29;20045;-64
2021/05/15 09:34:07;;;;;;;1.10;0.70;;;640.90;1049.60;;;;;;4883105;29;20040;-62
2021/05/15 09:36:33;;;;;;;1.48;0.70;;;640.70;1075.20;;;;;;4883000;29;20364;-64
2021/05/15 09:39:08;;;;;;;1.00;0.70;;;640.90;1075.20;;;;;;4882619;29;20056;-63
2021/05/15 09:41:33;;;;;;;1.42;0.82;;;640.70;1049.60;;;;;;4882978;29;20033;-64
2021/05/15 09:43:59;;;;;;;1.95;0.80;;;640.50;1049.60;;;;;;4865479;29;20060;-64
2021/05/15 09:46:27;;;;;;;2.53;0.77;;;640.00;1100.80;;;;;;4882667;29;20081;-64
2021/05/15 09:48:56;;;;;;;2.45;0.80;;;615.30;1075.20;;;;;;4882489;29;20119;-61
2021/05/15 09:51:22;;;;;;;1.85;0.70;;;615.30;1100.80;;;;;;4882563;29;20379;-61
2021/05/15 09:53:49;;;;;;;1.17;0.80;;;640.10;1075.20;;;;;;4882845;29;20037;-61
2021/05/15 09:56:32;;;;;;;1.77;0.95;;;640.40;1100.80;;;;;;4882058;29;20539;-62
2021/05/15 09:58:57;;;;;;;1.73;0.70;;;640.80;1049.60;;;;;;4882709;29;20037;-62
2021/05/15 10:01:26;;;;;;;1.27;0.70;;;640.90;1075.20;;;;;;4882675;29;20365;-62
2021/05/15 10:03:59;;;;;;;3.60;1.00;;;640.80;1075.20;;;;;;4882605;29;20044;-61
2021/05/15 10:06:25;;;;;;;1.92;0.80;;;640.90;1049.60;;;;;;4882728;29;20420;-61
2021/05/15 10:08:51;;;;;;;2.35;1.02;;;665.90;1075.20;;;;;;4881914;29;20052;-61
2021/05/15 10:11:17;;;;;;;1.75;0.90;;;666.40;1024.00;;;;;;4882560;29;20025;-60
2021/05/15 10:13:43;;;;;;;2.35;1.00;;;691.20;998.40;;;;;;4882377;29;20509;-62
2021/05/15 10:16:09;;;;;;;1.77;1.00;;;691.30;998.40;;;;;;4881686;29;20032;-62
2021/05/15 10:18:35;;;;;;;1.90;1.05;;;691.50;947.20;;;;;;4881672;29;20475;-61
2021/05/15 10:21:02;;;;;;;1.83;1.10;;;691.80;921.60;;;;;;4880738;29;20047;-60
2021/05/15 10:23:29;;;;;;;2.00;1.00;;;692.10;921.60;;;;;;4877972;29;20064;-60
2021/05/15 10:26:22;;;;;;;2.05;1.02;;;692.00;896.00;;;;;;4879691;29;20025;-61
2021/05/15 10:29:03;;;;;;;2.43;1.17;;;691.90;921.60;;;;;;4875385;29;20069;-61
2021/05/15 10:31:41;;;;;;;3.15;1.10;;;691.90;921.60;;;;;;4879177;29;20043;-60
2021/05/15 10:34:08;;;;;;;1.40;0.90;;;691.80;921.60;;;;;;4878852;29;20111;-61
2021/05/15 10:36:49;;;;;;;2.38;1.08;;;691.70;921.60;;;;;;4880450;29;20025;-65
2021/05/15 10:39:35;;;;;;;1.52;0.93;;;666.50;998.40;;;;;;4879879;29;20037;-62
2021/05/15 10:42:02;;;;;;;2.42;1.00;;;691.70;947.20;;;;;;4879376;29;20049;-68
2021/05/15 10:44:43;;;;;;;2.50;0.90;;;691.70;947.20;;;;;;4878306;29;20475;-65
2021/05/15 10:47:09;;;;;;;2.28;1.30;;;691.70;947.20;;;;;;4878184;29;20029;-63
2021/05/15 10:49:35;;;;;;;2.13;1.00;;;691.20;972.80;;;;;;4877276;29;20368;-63
2021/05/15 10:52:18;;;;;;;3.03;1.50;;;691.30;998.40;;;;;;4876799;29;20104;-64
2021/05/15 10:54:59;;;;;;;3.15;1.13;;;665.80;1049.60;;;;;;4877295;29;20063;-65
2021/05/15 10:57:27;;;;;;;3.00;1.20;;;665.80;1049.60;;;;;;4872819;29;20037;-66
2021/05/15 10:59:58;;;;;;;1.95;1.00;;;640.90;1024.00;;;;;;4873127;29;20065;-66
2021/05/15 11:02:38;;;;;;;2.67;1.30;;;640.80;1049.60;;;;;;4873895;29;20052;-64
2021/05/15 11:05:17;;;;;;;2.53;1.10;;;640.90;1049.60;;;;;;4875583;29;20047;-67
2021/05/15 11:07:43;;;;;;;2.08;1.27;;;665.80;1049.60;;;;;;4877523;29;20040;-66
2021/05/15 11:10:16;;;;;;;2.28;1.23;;;665.60;1049.60;;;;;;4878643;29;20061;-67
2021/05/15 11:12:46;;;;;;;3.42;1.38;;;640.90;1049.60;;;;;;4875832;29;20081;-65
2021/05/15 11:15:14;;;;;;;3.13;1.35;;;640.80;1049.60;;;;;;4877072;29;20483;-64
2021/05/15 11:17:41;;;;;;;3.25;1.20;;;665.60;1049.60;;;;;;4875782;29;20097;-65
2021/05/15 11:20:19;;;;;;;2.78;1.52;;;666.00;1024.00;;;;;;4874031;29;20105;-64
2021/05/15 11:22:49;;;;;;;1.58;1.15;;;666.30;1024.00;;;;;;4878388;29;20172;-64
2021/05/15 11:25:15;;;;;;;3.22;1.10;;;691.50;998.40;;;;;;4878440;29;20056;-66
2021/05/15 11:27:44;;;;;;;2.05;1.08;;;691.20;972.80;;;;;;4878290;29;20079;-64
2021/05/15 11:30:15;;;;;;;2.50;1.05;;;691.70;947.20;;;;;;4877041;29;20417;-65
2021/05/15 11:32:54;;;;;;;3.03;1.30;;;692.00;921.60;;;;;;4878168;29;20447;-65
2021/05/15 11:35:20;;;;;;;2.67;1.20;;;692.00;947.20;;;;;;4874687;29;20127;-65
2021/05/15 11:37:46;;;;;;;3.50;1.40;;;692.10;921.60;;;;;;4872848;29;20124;-65
2021/05/15 11:40:13;;;;;;;2.17;1.00;;;717.00;947.20;;;;;;4875029;29;20053;-64
2021/05/15 11:42:39;;;;;;;2.63;1.10;;;716.90;896.00;;;;;;4875440;29;20534;-63
2021/05/15 11:45:06;;;;;;;2.63;1.13;;;717.20;921.60;;;;;;4875150;29;20407;-64
2021/05/15 11:47:31;;;;;;;3.17;1.10;;;716.90;896.00;;;;;;4875062;29;20045;-62
2021/05/15 11:50:00;;;;;;;2.65;1.13;;;692.10;896.00;;;;;;4874445;29;20059;-67
2021/05/15 11:52:34;;;;;;;2.95;1.50;;;716.90;972.80;;;;;;4875912;29;20029;-65
2021/05/15 11:55:03;;;;;;;2.97;1.40;;;717.00;921.60;;;;;;4875092;29;20112;-67
2021/05/15 11:57:30;;;;;;;3.28;1.70;;;717.00;921.60;;;;;;4874562;29;20033;-64
2021/05/15 12:00:13;;;;;;;2.65;1.23;;;692.10;921.60;;;;;;4876613;29;20454;-66
2021/05/15 12:02:46;;;;;;;3.30;1.30;;;691.70;921.60;;;;;;4874392;29;20033;-67
2021/05/15 12:05:19;;;;;;;3.03;1.35;;;691.70;921.60;;;;;;4872656;29;20072;-66
2021/05/15 12:07:49;;;;;;;3.75;1.90;;;691.70;921.60;;;;;;4871062;29;20033;-65
2021/05/15 12:10:17;;;;;;;3.10;1.70;;;691.50;972.80;;;;;;4874120;29;20036;-66
2021/05/15 12:13:03;;;;;;;2.45;1.30;;;691.40;972.80;;;;;;4877304;29;20025;-65
2021/05/15 12:15:31;;;;;;;3.15;1.55;;;666.50;998.40;;;;;;4876233;29;20036;-63
2021/05/15 12:18:00;;;;;;;2.67;1.33;;;691.50;972.80;;;;;;4877493;29;20021;-62
2021/05/15 12:20:30;;;;;;;3.20;1.40;;;691.60;972.80;;;;;;4877377;29;20076;-66
2021/05/15 12:23:09;;;;;;;2.35;1.40;;;692.00;947.20;;;;;;4876892;29;20035;-65
2021/05/15 12:25:37;;;;;;;4.05;1.20;;;691.80;947.20;;;;;;4875216;29;20025;-67